sensor_id;sensor_type;location;lat;lon;timestamp;temperature;humidity
63445;DHT22;49573;47.682;9.170;2022-10-17T00:01:20;12.80;84.90
63445;DHT22;49573;47.682;9.170;2022-10-17T00:04:06;12.80;84.80
63445;DHT22;49573;47.682;9.170;2022-10-17T00:06:52;12.80;84.50
63445;DHT22;49573;47.682;9.170;2022-10-17T00:09:42;12.70;84.80
63445;DHT22;49573;47.682;9.170;2022-10-17T00:12:28;12.70;85.30
63445;DHT22;49573;47.682;9.170;2022-10-17T00:15:16;12.70;85.50
63445;DHT22;49573;47.682;9.170;2022-10-17T00:18:03;12.60;85.20
63445;DHT22;49573;47.682;9.170;2022-10-17T00:20:49;12.60;85.20
63445;DHT22;49573;47.682;9.170;2022-10-17T00:23:35;12.60;84.90
63445;DHT22;49573;47.682;9.170;2022-10-17T00:26:23;12.60;85.30
63445;DHT22;49573;47.682;9.170;2022-10-17T00:29:09;12.60;84.90
63445;DHT22;49573;47.682;9.170;2022-10-17T00:31:55;12.50;85.20
63445;DHT22;49573;47.682;9.170;2022-10-17T00:34:42;12.50;84.70
63445;DHT22;49573;47.682;9.170;2022-10-17T00:37:29;12.50;85.20
63445;DHT22;49573;47.682;9.170;2022-10-17T00:40:15;12.50;84.70
63445;DHT22;49573;47.682;9.170;2022-10-17T00:43:02;12.50;84.60
63445;DHT22;49573;47.682;9.170;2022-10-17T00:45:48;12.50;84.50
63445;DHT22;49573;47.682;9.170;2022-10-17T00:48:34;12.40;84.90
63445;DHT22;49573;47.682;9.170;2022-10-17T00:51:25;12.40;84.60
63445;DHT22;49573;47.682;9.170;2022-10-17T00:54:16;12.40;84.80
63445;DHT22;49573;47.682;9.170;2022-10-17T00:57:04;12.40;85.20
63445;DHT22;49573;47.682;9.170;2022-10-17T00:59:55;12.40;85.10
63445;DHT22;49573;47.682;9.170;2022-10-17T01:02:42;12.30;85.00
63445;DHT22;49573;47.682;9.170;2022-10-17T01:05:29;12.30;84.60
63445;DHT22;49573;47.682;9.170;2022-10-17T01:08:15;12.30;84.90
63445;DHT22;49573;47.682;9.170;2022-10-17T01:11:12;12.30;84.80
63445;DHT22;49573;47.682;9.170;2022-10-17T01:14:04;12.30;85.00
63445;DHT22;49573;47.682;9.170;2022-10-17T01:16:59;12.30;85.60
63445;DHT22;49573;47.682;9.170;2022-10-17T01:20:04;12.30;85.40
63445;DHT22;49573;47.682;9.170;2022-10-17T01:23:10;12.20;85.20
63445;DHT22;49573;47.682;9.170;2022-10-17T01:26:08;12.20;85.30
63445;DHT22;49573;47.682;9.170;2022-10-17T01:29:03;12.10;85.20
63445;DHT22;49573;47.682;9.170;2022-10-17T01:32:00;12.00;85.00
63445;DHT22;49573;47.682;9.170;2022-10-17T01:34:52;12.00;85.00
63445;DHT22;49573;47.682;9.170;2022-10-17T01:37:44;12.00;85.10
63445;DHT22;49573;47.682;9.170;2022-10-17T01:40:35;12.00;84.90
63445;DHT22;49573;47.682;9.170;2022-10-17T01:43:25;11.90;85.10
63445;DHT22;49573;47.682;9.170;2022-10-17T01:46:17;11.90;84.90
63445;DHT22;49573;47.682;9.170;2022-10-17T01:49:08;11.90;85.10
63445;DHT22;49573;47.682;9.170;2022-10-17T01:51:58;11.80;85.50
63445;DHT22;49573;47.682;9.170;2022-10-17T01:54:47;11.80;85.40
63445;DHT22;49573;47.682;9.170;2022-10-17T01:57:37;11.80;85.80
63445;DHT22;49573;47.682;9.170;2022-10-17T02:00:26;11.80;85.90
63445;DHT22;49573;47.682;9.170;2022-10-17T02:03:16;11.80;85.40
63445;DHT22;49573;47.682;9.170;2022-10-17T02:06:05;11.70;85.60
63445;DHT22;49573;47.682;9.170;2022-10-17T02:08:51;11.70;85.70
63445;DHT22;49573;47.682;9.170;2022-10-17T02:11:37;11.70;85.20
63445;DHT22;49573;47.682;9.170;2022-10-17T02:14:31;11.70;85.10
63445;DHT22;49573;47.682;9.170;2022-10-17T02:17:34;11.70;85.50
63445;DHT22;49573;47.682;9.170;2022-10-17T02:20:25;11.60;85.30
63445;DHT22;49573;47.682;9.170;2022-10-17T02:23:20;11.60;85.70
63445;DHT22;49573;47.682;9.170;2022-10-17T02:26:10;11.50;85.90
63445;DHT22;49573;47.682;9.170;2022-10-17T02:29:06;11.60;85.80
63445;DHT22;49573;47.682;9.170;2022-10-17T02:31:58;11.60;86.60
63445;DHT22;49573;47.682;9.170;2022-10-17T02:34:49;11.60;87.00
63445;DHT22;49573;47.682;9.170;2022-10-17T02:37:38;11.60;87.50
63445;DHT22;49573;47.682;9.170;2022-10-17T02:40:29;11.70;88.10
63445;DHT22;49573;47.682;9.170;2022-10-17T02:43:16;11.80;88.60
63445;DHT22;49573;47.682;9.170;2022-10-17T02:46:03;11.90;88.60
63445;DHT22;49573;47.682;9.170;2022-10-17T02:48:51;12.00;89.50
63445;DHT22;49573;47.682;9.170;2022-10-17T02:51:43;12.10;89.30
63445;DHT22;49573;47.682;9.170;2022-10-17T02:54:34;12.20;89.80
63445;DHT22;49573;47.682;9.170;2022-10-17T02:57:27;12.20;89.90
63445;DHT22;49573;47.682;9.170;2022-10-17T03:00:16;12.30;89.10
63445;DHT22;49573;47.682;9.170;2022-10-17T03:03:18;12.40;89.50
63445;DHT22;49573;47.682;9.170;2022-10-17T03:06:04;12.40;89.30
63445;DHT22;49573;47.682;9.170;2022-10-17T03:08:50;12.50;89.10
63445;DHT22;49573;47.682;9.170;2022-10-17T03:11:36;12.60;89.10
63445;DHT22;49573;47.682;9.170;2022-10-17T03:14:24;12.70;89.40
63445;DHT22;49573;47.682;9.170;2022-10-17T03:17:10;12.80;89.40
63445;DHT22;49573;47.682;9.170;2022-10-17T03:19:56;12.70;89.60
63445;DHT22;49573;47.682;9.170;2022-10-17T03:22:42;12.80;89.60
63445;DHT22;49573;47.682;9.170;2022-10-17T03:25:28;12.80;89.70
63445;DHT22;49573;47.682;9.170;2022-10-17T03:28:15;12.80;89.10
63445;DHT22;49573;47.682;9.170;2022-10-17T03:31:07;12.80;89.40
63445;DHT22;49573;47.682;9.170;2022-10-17T03:33:53;12.80;89.30
63445;DHT22;49573;47.682;9.170;2022-10-17T03:36:39;12.80;88.90
63445;DHT22;49573;47.682;9.170;2022-10-17T03:39:25;12.80;89.10
63445;DHT22;49573;47.682;9.170;2022-10-17T03:42:11;12.80;89.40
63445;DHT22;49573;47.682;9.170;2022-10-17T03:44:57;12.80;89.20
63445;DHT22;49573;47.682;9.170;2022-10-17T03:47:45;12.80;89.20
63445;DHT22;49573;47.682;9.170;2022-10-17T03:50:31;12.80;88.60
63445;DHT22;49573;47.682;9.170;2022-10-17T03:53:17;12.80;89.20
63445;DHT22;49573;47.682;9.170;2022-10-17T03:56:11;12.90;89.30
63445;DHT22;49573;47.682;9.170;2022-10-17T03:58:57;12.90;89.40
63445;DHT22;49573;47.682;9.170;2022-10-17T04:01:43;12.90;89.60
63445;DHT22;49573;47.682;9.170;2022-10-17T04:04:31;12.80;89.50
63445;DHT22;49573;47.682;9.170;2022-10-17T04:07:17;13.00;88.70
63445;DHT22;49573;47.682;9.170;2022-10-17T04:10:03;13.00;89.10
63445;DHT22;49573;47.682;9.170;2022-10-17T04:12:50;12.90;89.20
63445;DHT22;49573;47.682;9.170;2022-10-17T04:15:36;12.90;89.10
63445;DHT22;49573;47.682;9.170;2022-10-17T04:18:22;12.90;89.10
63445;DHT22;49573;47.682;9.170;2022-10-17T04:21:10;12.90;89.00
63445;DHT22;49573;47.682;9.170;2022-10-17T04:23:58;12.90;89.20
63445;DHT22;49573;47.682;9.170;2022-10-17T04:26:44;12.90;89.40
63445;DHT22;49573;47.682;9.170;2022-10-17T04:29:30;13.00;89.10
63445;DHT22;49573;47.682;9.170;2022-10-17T04:32:17;13.00;88.90
63445;DHT22;49573;47.682;9.170;2022-10-17T04:35:03;13.00;88.90
63445;DHT22;49573;47.682;9.170;2022-10-17T04:37:51;13.00;89.10
63445;DHT22;49573;47.682;9.170;2022-10-17T04:40:37;12.90;89.00
63445;DHT22;49573;47.682;9.170;2022-10-17T04:43:23;13.00;89.10
63445;DHT22;49573;47.682;9.170;2022-10-17T04:46:10;13.00;89.10
63445;DHT22;49573;47.682;9.170;2022-10-17T04:48:57;13.00;89.10
63445;DHT22;49573;47.682;9.170;2022-10-17T04:51:43;13.00;88.90
63445;DHT22;49573;47.682;9.170;2022-10-17T04:54:30;13.00;88.50
63445;DHT22;49573;47.682;9.170;2022-10-17T04:57:17;12.90;88.30
63445;DHT22;49573;47.682;9.170;2022-10-17T05:00:04;12.90;88.20
63445;DHT22;49573;47.682;9.170;2022-10-17T05:02:50;12.80;87.80
63445;DHT22;49573;47.682;9.170;2022-10-17T05:05:36;12.80;87.80
63445;DHT22;49573;47.682;9.170;2022-10-17T05:08:23;12.70;87.50
63445;DHT22;49573;47.682;9.170;2022-10-17T05:11:19;12.70;87.60
63445;DHT22;49573;47.682;9.170;2022-10-17T05:14:06;12.70;87.90
63445;DHT22;49573;47.682;9.170;2022-10-17T05:16:52;12.60;87.80
63445;DHT22;49573;47.682;9.170;2022-10-17T05:19:38;12.50;87.70
63445;DHT22;49573;47.682;9.170;2022-10-17T05:22:24;12.50;87.50
63445;DHT22;49573;47.682;9.170;2022-10-17T05:25:10;12.50;87.30
63445;DHT22;49573;47.682;9.170;2022-10-17T05:27:58;12.40;87.30
63445;DHT22;49573;47.682;9.170;2022-10-17T05:30:44;12.40;87.20
63445;DHT22;49573;47.682;9.170;2022-10-17T05:33:30;12.30;87.30
63445;DHT22;49573;47.682;9.170;2022-10-17T05:36:17;12.30;87.30
63445;DHT22;49573;47.682;9.170;2022-10-17T05:39:03;12.30;87.30
63445;DHT22;49573;47.682;9.170;2022-10-17T05:41:49;12.30;87.20
63445;DHT22;49573;47.682;9.170;2022-10-17T05:44:38;12.20;87.30
63445;DHT22;49573;47.682;9.170;2022-10-17T05:47:26;12.30;87.40
63445;DHT22;49573;47.682;9.170;2022-10-17T05:50:12;12.30;87.40
63445;DHT22;49573;47.682;9.170;2022-10-17T05:52:58;12.30;87.60
63445;DHT22;49573;47.682;9.170;2022-10-17T05:55:44;12.30;87.90
63445;DHT22;49573;47.682;9.170;2022-10-17T05:58:30;12.30;87.80
63445;DHT22;49573;47.682;9.170;2022-10-17T06:01:18;12.30;87.80
63445;DHT22;49573;47.682;9.170;2022-10-17T06:04:05;12.30;87.80
63445;DHT22;49573;47.682;9.170;2022-10-17T06:06:51;12.40;87.90
63445;DHT22;49573;47.682;9.170;2022-10-17T06:09:37;12.40;88.30
63445;DHT22;49573;47.682;9.170;2022-10-17T06:12:23;12.50;88.60
63445;DHT22;49573;47.682;9.170;2022-10-17T06:15:10;12.50;88.60
63445;DHT22;49573;47.682;9.170;2022-10-17T06:17:57;12.50;88.90
63445;DHT22;49573;47.682;9.170;2022-10-17T06:20:43;12.50;88.90
63445;DHT22;49573;47.682;9.170;2022-10-17T06:23:29;12.60;88.60
63445;DHT22;49573;47.682;9.170;2022-10-17T06:26:16;12.70;88.60
63445;DHT22;49573;47.682;9.170;2022-10-17T06:29:02;12.70;88.40
63445;DHT22;49573;47.682;9.170;2022-10-17T06:31:48;12.70;88.30
63445;DHT22;49573;47.682;9.170;2022-10-17T06:34:36;12.70;88.50
63445;DHT22;49573;47.682;9.170;2022-10-17T06:37:22;12.80;88.40
63445;DHT22;49573;47.682;9.170;2022-10-17T06:40:09;12.80;88.00
63445;DHT22;49573;47.682;9.170;2022-10-17T06:42:56;12.80;87.90
63445;DHT22;49573;47.682;9.170;2022-10-17T06:45:44;12.80;88.00
63445;DHT22;49573;47.682;9.170;2022-10-17T06:48:31;12.80;88.20
63445;DHT22;49573;47.682;9.170;2022-10-17T06:51:18;12.80;88.00
63445;DHT22;49573;47.682;9.170;2022-10-17T06:54:05;12.80;88.30
63445;DHT22;49573;47.682;9.170;2022-10-17T06:56:51;12.90;88.40
63445;DHT22;49573;47.682;9.170;2022-10-17T06:59:37;13.00;88.40
63445;DHT22;49573;47.682;9.170;2022-10-17T07:02:23;12.90;88.10
63445;DHT22;49573;47.682;9.170;2022-10-17T07:05:09;12.90;88.10
63445;DHT22;49573;47.682;9.170;2022-10-17T07:07:57;12.90;88.20
63445;DHT22;49573;47.682;9.170;2022-10-17T07:10:43;12.90;88.20
63445;DHT22;49573;47.682;9.170;2022-10-17T07:13:29;12.90;88.10
63445;DHT22;49573;47.682;9.170;2022-10-17T07:16:15;12.90;88.40
63445;DHT22;49573;47.682;9.170;2022-10-17T07:19:01;12.80;88.30
63445;DHT22;49573;47.682;9.170;2022-10-17T07:21:48;12.90;88.50
63445;DHT22;49573;47.682;9.170;2022-10-17T07:24:35;13.00;88.50
63445;DHT22;49573;47.682;9.170;2022-10-17T07:27:21;13.20;87.80
63445;DHT22;49573;47.682;9.170;2022-10-17T07:30:09;13.20;88.20
63445;DHT22;49573;47.682;9.170;2022-10-17T07:32:55;13.20;88.20
63445;DHT22;49573;47.682;9.170;2022-10-17T07:35:41;13.10;88.30
63445;DHT22;49573;47.682;9.170;2022-10-17T07:38:27;13.10;88.40
63445;DHT22;49573;47.682;9.170;2022-10-17T07:41:15;13.20;88.30
63445;DHT22;49573;47.682;9.170;2022-10-17T07:44:01;13.30;88.70
63445;DHT22;49573;47.682;9.170;2022-10-17T07:46:47;13.30;87.90
63445;DHT22;49573;47.682;9.170;2022-10-17T07:49:33;13.40;88.20
63445;DHT22;49573;47.682;9.170;2022-10-17T07:52:19;13.40;88.00
63445;DHT22;49573;47.682;9.170;2022-10-17T07:55:06;13.40;88.20
63445;DHT22;49573;47.682;9.170;2022-10-17T07:57:55;13.40;87.80
63445;DHT22;49573;47.682;9.170;2022-10-17T08:00:41;13.50;88.10
63445;DHT22;49573;47.682;9.170;2022-10-17T08:03:28;13.40;88.20
63445;DHT22;49573;47.682;9.170;2022-10-17T08:06:14;13.40;88.30
63445;DHT22;49573;47.682;9.170;2022-10-17T08:09:00;13.60;88.50
63445;DHT22;49573;47.682;9.170;2022-10-17T08:11:47;13.70;88.40
63445;DHT22;49573;47.682;9.170;2022-10-17T08:14:35;13.80;88.00
63445;DHT22;49573;47.682;9.170;2022-10-17T08:17:21;14.00;88.00
63445;DHT22;49573;47.682;9.170;2022-10-17T08:20:08;14.10;87.60
63445;DHT22;49573;47.682;9.170;2022-10-17T08:22:55;14.10;87.60
63445;DHT22;49573;47.682;9.170;2022-10-17T08:25:41;14.00;87.30
63445;DHT22;49573;47.682;9.170;2022-10-17T08:28:27;14.00;87.60
63445;DHT22;49573;47.682;9.170;2022-10-17T08:31:17;14.00;87.50
63445;DHT22;49573;47.682;9.170;2022-10-17T08:34:04;14.00;87.80
63445;DHT22;49573;47.682;9.170;2022-10-17T08:36:50;14.00;87.80
63445;DHT22;49573;47.682;9.170;2022-10-17T08:39:36;14.30;88.00
63445;DHT22;49573;47.682;9.170;2022-10-17T08:42:33;14.40;88.00
63445;DHT22;49573;47.682;9.170;2022-10-17T08:45:26;14.50;86.80
63445;DHT22;49573;47.682;9.170;2022-10-17T08:48:18;14.40;86.90
63445;DHT22;49573;47.682;9.170;2022-10-17T08:51:11;14.50;86.50
63445;DHT22;49573;47.682;9.170;2022-10-17T08:54:03;14.30;87.60
63445;DHT22;49573;47.682;9.170;2022-10-17T08:56:53;14.50;87.50
63445;DHT22;49573;47.682;9.170;2022-10-17T08:59:40;14.70;87.40
63445;DHT22;49573;47.682;9.170;2022-10-17T09:02:36;14.90;86.70
63445;DHT22;49573;47.682;9.170;2022-10-17T09:05:36;14.70;86.30
63445;DHT22;49573;47.682;9.170;2022-10-17T09:08:36;14.70;86.70
63445;DHT22;49573;47.682;9.170;2022-10-17T09:11:40;14.60;87.60
63445;DHT22;49573;47.682;9.170;2022-10-17T09:14:44;14.40;87.10
63445;DHT22;49573;47.682;9.170;2022-10-17T09:17:37;14.70;87.60
63445;DHT22;49573;47.682;9.170;2022-10-17T09:20:27;14.60;87.40
63445;DHT22;49573;47.682;9.170;2022-10-17T09:23:19;14.70;86.80
63445;DHT22;49573;47.682;9.170;2022-10-17T09:26:09;14.80;87.50
63445;DHT22;49573;47.682;9.170;2022-10-17T09:28:58;14.80;86.90
63445;DHT22;49573;47.682;9.170;2022-10-17T09:31:47;14.70;86.30
63445;DHT22;49573;47.682;9.170;2022-10-17T09:34:33;14.70;87.10
63445;DHT22;49573;47.682;9.170;2022-10-17T09:37:26;14.80;87.10
63445;DHT22;49573;47.682;9.170;2022-10-17T09:40:20;15.00;86.40
63445;DHT22;49573;47.682;9.170;2022-10-17T09:43:10;15.00;86.00
63445;DHT22;49573;47.682;9.170;2022-10-17T09:46:04;15.10;86.50
63445;DHT22;49573;47.682;9.170;2022-10-17T09:48:56;14.90;86.60
63445;DHT22;49573;47.682;9.170;2022-10-17T09:51:43;15.20;86.20
63445;DHT22;49573;47.682;9.170;2022-10-17T09:54:39;15.30;85.70
63445;DHT22;49573;47.682;9.170;2022-10-17T09:57:27;15.70;85.10
63445;DHT22;49573;47.682;9.170;2022-10-17T10:00:20;15.60;84.80
63445;DHT22;49573;47.682;9.170;2022-10-17T10:03:16;15.80;84.30
63445;DHT22;49573;47.682;9.170;2022-10-17T10:06:05;16.10;83.70
63445;DHT22;49573;47.682;9.170;2022-10-17T10:08:52;16.10;83.50
63445;DHT22;49573;47.682;9.170;2022-10-17T10:11:48;16.20;83.30
63445;DHT22;49573;47.682;9.170;2022-10-17T10:14:37;16.90;81.90
63445;DHT22;49573;47.682;9.170;2022-10-17T10:17:28;16.90;81.60
63445;DHT22;49573;47.682;9.170;2022-10-17T10:20:31;17.30;80.50
63445;DHT22;49573;47.682;9.170;2022-10-17T10:23:18;17.60;79.90
63445;DHT22;49573;47.682;9.170;2022-10-17T10:26:25;17.50;79.70
63445;DHT22;49573;47.682;9.170;2022-10-17T10:29:25;17.50;79.90
63445;DHT22;49573;47.682;9.170;2022-10-17T10:32:20;17.60;79.10
63445;DHT22;49573;47.682;9.170;2022-10-17T10:35:18;17.80;78.90
63445;DHT22;49573;47.682;9.170;2022-10-17T10:38:08;17.80;78.10
63445;DHT22;49573;47.682;9.170;2022-10-17T10:41:00;18.20;78.00
63445;DHT22;49573;47.682;9.170;2022-10-17T10:43:48;18.20;77.20
63445;DHT22;49573;47.682;9.170;2022-10-17T10:46:36;19.10;77.90
63445;DHT22;49573;47.682;9.170;2022-10-17T10:49:30;19.30;75.50
63445;DHT22;49573;47.682;9.170;2022-10-17T10:52:33;19.40;74.90
63445;DHT22;49573;47.682;9.170;2022-10-17T10:55:25;19.80;74.20
63445;DHT22;49573;47.682;9.170;2022-10-17T10:58:23;20.20;73.80
63445;DHT22;49573;47.682;9.170;2022-10-17T11:01:25;20.10;71.30
63445;DHT22;49573;47.682;9.170;2022-10-17T11:04:27;19.80;70.80
63445;DHT22;49573;47.682;9.170;2022-10-17T11:07:19;19.70;71.70
63445;DHT22;49573;47.682;9.170;2022-10-17T11:10:13;20.10;71.30
63445;DHT22;49573;47.682;9.170;2022-10-17T11:13:04;20.40;72.20
63445;DHT22;49573;47.682;9.170;2022-10-17T11:15:55;20.70;69.00
63445;DHT22;49573;47.682;9.170;2022-10-17T11:18:45;20.50;68.10
63445;DHT22;49573;47.682;9.170;2022-10-17T11:21:38;20.30;66.50
63445;DHT22;49573;47.682;9.170;2022-10-17T11:24:33;20.30;68.30
63445;DHT22;49573;47.682;9.170;2022-10-17T11:27:22;20.50;66.80
63445;DHT22;49573;47.682;9.170;2022-10-17T11:30:11;21.20;68.00
63445;DHT22;49573;47.682;9.170;2022-10-17T11:32:59;21.50;64.50
63445;DHT22;49573;47.682;9.170;2022-10-17T11:35:50;21.90;65.30
63445;DHT22;49573;47.682;9.170;2022-10-17T11:38:46;22.20;64.50
63445;DHT22;49573;47.682;9.170;2022-10-17T11:41:39;21.90;64.00
63445;DHT22;49573;47.682;9.170;2022-10-17T11:44:29;22.30;61.60
63445;DHT22;49573;47.682;9.170;2022-10-17T11:47:26;23.60;63.40
63445;DHT22;49573;47.682;9.170;2022-10-17T11:50:21;24.30;60.30
63445;DHT22;49573;47.682;9.170;2022-10-17T11:53:13;24.50;60.30
63445;DHT22;49573;47.682;9.170;2022-10-17T11:56:00;24.40;56.10
63445;DHT22;49573;47.682;9.170;2022-10-17T11:58:53;24.90;56.60
63445;DHT22;49573;47.682;9.170;2022-10-17T12:01:43;25.80;55.80
63445;DHT22;49573;47.682;9.170;2022-10-17T12:04:39;26.80;53.50
63445;DHT22;49573;47.682;9.170;2022-10-17T12:07:37;28.20;50.90
63445;DHT22;49573;47.682;9.170;2022-10-17T12:10:38;28.10;50.00
63445;DHT22;49573;47.682;9.170;2022-10-17T12:13:49;28.00;49.10
63445;DHT22;49573;47.682;9.170;2022-10-17T12:16:44;29.50;47.50
63445;DHT22;49573;47.682;9.170;2022-10-17T12:19:32;30.00;46.90
63445;DHT22;49573;47.682;9.170;2022-10-17T12:22:21;29.20;47.50
63445;DHT22;49573;47.682;9.170;2022-10-17T12:25:16;30.30;46.00
63445;DHT22;49573;47.682;9.170;2022-10-17T12:31:02;31.20;43.80
63445;DHT22;49573;47.682;9.170;2022-10-17T12:36:38;33.30;39.60
63445;DHT22;49573;47.682;9.170;2022-10-17T12:39:48;33.30;39.60
63445;DHT22;49573;47.682;9.170;2022-10-17T12:42:48;33.70;39.50
63445;DHT22;49573;47.682;9.170;2022-10-17T12:45:45;33.50;38.70
63445;DHT22;49573;47.682;9.170;2022-10-17T12:49:20;33.90;38.40
63445;DHT22;49573;47.682;9.170;2022-10-17T12:55:28;34.80;36.30
63445;DHT22;49573;47.682;9.170;2022-10-17T12:58:15;34.40;36.70
63445;DHT22;49573;47.682;9.170;2022-10-17T13:03:51;36.30;33.70
63445;DHT22;49573;47.682;9.170;2022-10-17T13:06:44;36.50;34.60
63445;DHT22;49573;47.682;9.170;2022-10-17T13:09:32;37.10;34.60
63445;DHT22;49573;47.682;9.170;2022-10-17T13:12:22;36.50;32.80
63445;DHT22;49573;47.682;9.170;2022-10-17T13:15:14;36.80;33.80
63445;DHT22;49573;47.682;9.170;2022-10-17T13:23:46;37.30;31.70
63445;DHT22;49573;47.682;9.170;2022-10-17T13:26:34;36.80;31.90
63445;DHT22;49573;47.682;9.170;2022-10-17T13:29:20;36.60;33.80
63445;DHT22;49573;47.682;9.170;2022-10-17T13:32:09;37.30;32.80
63445;DHT22;49573;47.682;9.170;2022-10-17T13:35:05;37.30;32.20
63445;DHT22;49573;47.682;9.170;2022-10-17T13:40:42;37.50;32.40
63445;DHT22;49573;47.682;9.170;2022-10-17T13:43:30;37.70;31.60
63445;DHT22;49573;47.682;9.170;2022-10-17T13:46:25;37.20;31.20
63445;DHT22;49573;47.682;9.170;2022-10-17T14:00:26;38.60;30.30
63445;DHT22;49573;47.682;9.170;2022-10-17T14:03:12;38.50;31.00
63445;DHT22;49573;47.682;9.170;2022-10-17T14:06:13;37.80;30.80
63445;DHT22;49573;47.682;9.170;2022-10-17T14:09:02;37.40;31.70
63445;DHT22;49573;47.682;9.170;2022-10-17T14:11:59;37.30;31.20
63445;DHT22;49573;47.682;9.170;2022-10-17T14:14:49;37.80;31.40
63445;DHT22;49573;47.682;9.170;2022-10-17T14:17:36;37.50;31.60
63445;DHT22;49573;47.682;9.170;2022-10-17T14:52:19;36.20;32.60
63445;DHT22;49573;47.682;9.170;2022-10-17T14:55:21;36.00;32.90
63445;DHT22;49573;47.682;9.170;2022-10-17T14:58:16;36.40;33.50
63445;DHT22;49573;47.682;9.170;2022-10-17T15:01:02;35.90;34.00
63445;DHT22;49573;47.682;9.170;2022-10-17T15:03:48;36.30;33.70
63445;DHT22;49573;47.682;9.170;2022-10-17T15:06:36;36.60;33.10
63445;DHT22;49573;47.682;9.170;2022-10-17T15:09:22;36.20;33.20
63445;DHT22;49573;47.682;9.170;2022-10-17T15:12:13;35.80;34.10
63445;DHT22;49573;47.682;9.170;2022-10-17T15:14:59;35.40;34.60
63445;DHT22;49573;47.682;9.170;2022-10-17T15:17:46;34.80;35.10
63445;DHT22;49573;47.682;9.170;2022-10-17T15:20:33;33.50;36.40
63445;DHT22;49573;47.682;9.170;2022-10-17T15:23:20;33.60;37.10
63445;DHT22;49573;47.682;9.170;2022-10-17T15:26:14;32.90;37.70
63445;DHT22;49573;47.682;9.170;2022-10-17T15:29:01;32.60;38.10
63445;DHT22;49573;47.682;9.170;2022-10-17T15:31:47;32.20;38.70
63445;DHT22;49573;47.682;9.170;2022-10-17T15:34:32;32.00;39.10
63445;DHT22;49573;47.682;9.170;2022-10-17T15:37:20;31.40;39.80
63445;DHT22;49573;47.682;9.170;2022-10-17T15:40:13;30.80;40.90
63445;DHT22;49573;47.682;9.170;2022-10-17T15:43:00;31.10;40.90
63445;DHT22;49573;47.682;9.170;2022-10-17T15:45:46;31.10;41.00
63445;DHT22;49573;47.682;9.170;2022-10-17T15:48:32;30.70;41.60
63445;DHT22;49573;47.682;9.170;2022-10-17T15:51:18;30.30;42.30
63445;DHT22;49573;47.682;9.170;2022-10-17T15:54:04;30.30;42.30
63445;DHT22;49573;47.682;9.170;2022-10-17T15:56:54;30.20;42.40
63445;DHT22;49573;47.682;9.170;2022-10-17T15:59:40;29.80;43.20
63445;DHT22;49573;47.682;9.170;2022-10-17T16:02:26;29.30;43.90
63445;DHT22;49573;47.682;9.170;2022-10-17T16:05:14;29.30;44.10
63445;DHT22;49573;47.682;9.170;2022-10-17T16:08:01;28.60;45.20
63445;DHT22;49573;47.682;9.170;2022-10-17T16:10:47;28.20;46.20
63445;DHT22;49573;47.682;9.170;2022-10-17T16:13:35;27.70;47.20
63445;DHT22;49573;47.682;9.170;2022-10-17T16:16:22;27.00;48.60
63445;DHT22;49573;47.682;9.170;2022-10-17T16:19:08;26.50;49.20
63445;DHT22;49573;47.682;9.170;2022-10-17T16:21:55;25.80;50.60
63445;DHT22;49573;47.682;9.170;2022-10-17T16:24:41;24.80;52.30
63445;DHT22;49573;47.682;9.170;2022-10-17T16:27:28;24.30;53.10
63445;DHT22;49573;47.682;9.170;2022-10-17T16:30:15;23.60;54.40
63445;DHT22;49573;47.682;9.170;2022-10-17T16:33:02;23.40;54.70
63445;DHT22;49573;47.682;9.170;2022-10-17T16:35:48;22.90;56.00
63445;DHT22;49573;47.682;9.170;2022-10-17T16:38:34;22.40;57.30
63445;DHT22;49573;47.682;9.170;2022-10-17T16:41:22;22.00;59.00
63445;DHT22;49573;47.682;9.170;2022-10-17T16:44:10;21.70;59.70
63445;DHT22;49573;47.682;9.170;2022-10-17T16:47:00;21.30;60.20
63445;DHT22;49573;47.682;9.170;2022-10-17T16:49:47;21.30;60.70
63445;DHT22;49573;47.682;9.170;2022-10-17T16:52:33;21.00;61.50
63445;DHT22;49573;47.682;9.170;2022-10-17T16:55:19;20.60;62.30
63445;DHT22;49573;47.682;9.170;2022-10-17T16:58:05;20.30;63.50
63445;DHT22;49573;47.682;9.170;2022-10-17T17:00:51;20.10;64.70
63445;DHT22;49573;47.682;9.170;2022-10-17T17:03:40;19.90;65.30
63445;DHT22;49573;47.682;9.170;2022-10-17T17:06:27;19.80;65.50
63445;DHT22;49573;47.682;9.170;2022-10-17T17:09:14;19.50;66.20
63445;DHT22;49573;47.682;9.170;2022-10-17T17:12:00;19.30;67.10
63445;DHT22;49573;47.682;9.170;2022-10-17T17:14:46;19.20;67.20
63445;DHT22;49573;47.682;9.170;2022-10-17T17:17:32;19.20;67.50
63445;DHT22;49573;47.682;9.170;2022-10-17T17:20:21;19.00;68.40
63445;DHT22;49573;47.682;9.170;2022-10-17T17:23:07;18.80;68.80
63445;DHT22;49573;47.682;9.170;2022-10-17T17:25:59;18.70;69.60
63445;DHT22;49573;47.682;9.170;2022-10-17T17:28:46;18.50;70.10
63445;DHT22;49573;47.682;9.170;2022-10-17T17:31:33;18.40;70.10
63445;DHT22;49573;47.682;9.170;2022-10-17T17:34:20;18.30;70.40
63445;DHT22;49573;47.682;9.170;2022-10-17T17:37:07;18.10;70.60
63445;DHT22;49573;47.682;9.170;2022-10-17T17:39:53;18.00;71.40
63445;DHT22;49573;47.682;9.170;2022-10-17T17:53:50;17.80;71.80
63445;DHT22;49573;47.682;9.170;2022-10-17T17:56:37;17.50;72.60
63445;DHT22;49573;47.682;9.170;2022-10-17T17:59:23;17.40;72.90
63445;DHT22;49573;47.682;9.170;2022-10-17T18:02:10;17.30;72.80
63445;DHT22;49573;47.682;9.170;2022-10-17T18:04:56;17.30;73.40
63445;DHT22;49573;47.682;9.170;2022-10-17T18:07:42;17.20;73.90
63445;DHT22;49573;47.682;9.170;2022-10-17T18:10:29;17.10;74.00
63445;DHT22;49573;47.682;9.170;2022-10-17T18:13:15;17.00;74.30
63445;DHT22;49573;47.682;9.170;2022-10-17T18:16:02;17.00;74.20
63445;DHT22;49573;47.682;9.170;2022-10-17T18:18:57;16.90;74.20
63445;DHT22;49573;47.682;9.170;2022-10-17T18:21:45;16.80;74.70
63445;DHT22;49573;47.682;9.170;2022-10-17T18:24:31;16.80;74.80
63445;DHT22;49573;47.682;9.170;2022-10-17T18:27:18;16.70;75.30
63445;DHT22;49573;47.682;9.170;2022-10-17T18:30:05;16.70;74.90
63445;DHT22;49573;47.682;9.170;2022-10-17T18:35:39;16.60;75.90
63445;DHT22;49573;47.682;9.170;2022-10-17T18:38:25;16.50;76.30
63445;DHT22;49573;47.682;9.170;2022-10-17T18:41:13;16.50;76.20
63445;DHT22;49573;47.682;9.170;2022-10-17T18:44:01;16.30;76.70
63445;DHT22;49573;47.682;9.170;2022-10-17T18:46:50;16.30;76.60
63445;DHT22;49573;47.682;9.170;2022-10-17T18:49:36;16.30;76.50
63445;DHT22;49573;47.682;9.170;2022-10-17T18:52:22;16.20;76.30
63445;DHT22;49573;47.682;9.170;2022-10-17T18:55:09;16.20;76.50
63445;DHT22;49573;47.682;9.170;2022-10-17T18:57:55;16.00;76.50
63445;DHT22;49573;47.682;9.170;2022-10-17T19:00:42;16.00;76.40
63445;DHT22;49573;47.682;9.170;2022-10-17T19:03:29;15.80;76.90
63445;DHT22;49573;47.682;9.170;2022-10-17T19:06:24;15.80;77.00